createdAt,value
2019-04-26T00:00:45.934Z,35.43
2019-04-26T00:03:16.323Z,33.85
2019-04-26T00:05:45.172Z,36.63
2019-04-26T00:08:13.920Z,33.20
2019-04-26T00:10:47.709Z,37.60
2019-04-26T00:13:18.328Z,30.70
2019-04-26T00:15:51.470Z,31.52
2019-04-26T00:18:20.963Z,30.48
2019-04-26T00:20:49.703Z,32.90
2019-04-26T00:23:18.454Z,32.50
2019-04-26T00:25:47.135Z,26.93
2019-04-26T00:28:16.927Z,27.55
2019-04-26T00:30:45.770Z,28.35
2019-04-26T00:33:15.251Z,26.80
2019-04-26T00:35:47.583Z,28.42
2019-04-26T00:38:14.381Z,35.40
2019-04-26T00:40:44.727Z,29.18
2019-04-26T00:43:14.294Z,27.95
2019-04-26T00:45:43.706Z,34.67
2019-04-26T00:48:15.340Z,33.08
2019-04-26T00:50:44.685Z,36.45
2019-04-26T00:53:16.000Z,37.85
2019-04-26T00:55:45.090Z,30.65
2019-04-26T00:58:16.293Z,32.05
2019-04-26T01:00:45.156Z,40.48
2019-04-26T01:03:15.146Z,37.78
2019-04-26T01:05:44.130Z,28.90
2019-04-26T01:08:12.944Z,31.10
2019-04-26T01:10:41.621Z,32.23
2019-04-26T01:13:10.441Z,31.30
2019-04-26T01:15:39.125Z,45.40
2019-04-26T01:18:07.879Z,45.03
2019-04-26T01:20:37.695Z,41.70
2019-04-26T01:23:08.741Z,40.58
2019-04-26T01:26:02.921Z,32.55
2019-04-26T01:28:40.198Z,44.83
2019-04-26T01:31:09.161Z,31.15
2019-04-26T01:33:38.697Z,35.30
2019-04-26T01:36:13.089Z,29.02
2019-04-26T01:41:08.507Z,34.75
2019-04-26T01:46:36.178Z,31.75
2019-04-26T01:49:08.006Z,40.45
2019-04-26T01:51:39.676Z,27.50
2019-04-26T01:54:11.199Z,38.95
2019-04-26T01:56:40.041Z,30.88
2019-04-26T01:59:11.860Z,41.40
2019-04-26T02:01:54.072Z,27.67
2019-04-26T02:04:25.700Z,27.85
2019-04-26T02:06:54.385Z,32.35
2019-04-26T02:09:24.292Z,34.60
2019-04-26T02:11:53.021Z,21.75
2019-04-26T02:14:22.654Z,28.45
2019-04-26T02:16:52.266Z,27.22
2019-04-26T02:19:21.514Z,21.82
2019-04-26T02:21:52.005Z,32.75
2019-04-26T02:24:28.253Z,29.90
2019-04-26T02:26:57.499Z,28.32
2019-04-26T02:29:26.951Z,30.77
2019-04-26T02:31:58.712Z,29.00
2019-04-26T02:34:30.810Z,32.08
2019-04-26T02:37:02.114Z,30.82
2019-04-26T02:39:35.328Z,31.05
2019-04-26T02:42:07.137Z,33.38
2019-04-26T02:44:39.310Z,23.42
2019-04-26T02:47:34.661Z,25.12
2019-04-26T02:50:07.421Z,30.95
2019-04-26T02:52:58.517Z,36.93
2019-04-26T02:56:03.107Z,33.35
2019-04-26T02:58:35.987Z,36.38
2019-04-26T03:01:05.282Z,32.05
2019-04-26T03:03:35.649Z,25.05
2019-04-26T03:06:04.417Z,31.90
2019-04-26T03:08:37.169Z,28.47
2019-04-26T03:11:09.165Z,25.95
2019-04-26T03:13:43.692Z,35.40
2019-04-26T03:16:23.110Z,28.05
2019-04-26T03:18:58.942Z,30.05
2019-04-26T03:21:39.403Z,32.58
2019-04-26T03:24:23.093Z,34.10
2019-04-26T03:27:15.761Z,28.67
2019-04-26T03:30:19.684Z,31.60
2019-04-26T03:35:25.563Z,29.32
2019-04-26T03:38:13.469Z,24.90
2019-04-26T03:40:58.316Z,26.27
2019-04-26T03:43:36.985Z,38.63
2019-04-26T03:46:14.842Z,32.53
2019-04-26T03:48:58.478Z,29.50
2019-04-26T03:51:49.656Z,25.92
2019-04-26T03:56:52.412Z,27.52
2019-04-26T03:59:44.219Z,35.25
2019-04-26T04:02:18.257Z,36.13
2019-04-26T04:04:54.379Z,21.60
2019-04-26T04:07:36.993Z,27.70
2019-04-26T04:10:19.637Z,30.35
2019-04-26T04:13:00.030Z,27.25
2019-04-26T04:15:44.875Z,28.27
2019-04-26T04:18:29.257Z,28.07
2019-04-26T04:21:20.234Z,30.95
2019-04-26T04:23:51.921Z,30.10
2019-04-26T04:26:49.168Z,32.28
2019-04-26T04:29:42.827Z,23.22
2019-04-26T04:32:28.530Z,25.08
2019-04-26T04:35:00.209Z,36.83
2019-04-26T04:37:31.894Z,37.13
2019-04-26T04:40:20.089Z,38.20
2019-04-26T04:43:20.063Z,33.88
2019-04-26T04:46:08.240Z,36.70
2019-04-26T04:48:51.140Z,47.95
2019-04-26T04:51:38.850Z,35.75
2019-04-26T04:54:38.916Z,36.15
2019-04-26T04:57:13.588Z,36.05
2019-04-26T04:59:46.107Z,29.72
2019-04-26T05:02:19.497Z,29.10
2019-04-26T05:05:09.134Z,35.08
2019-04-26T05:07:47.293Z,36.68
2019-04-26T05:10:24.961Z,42.40
2019-04-26T05:13:02.317Z,58.23
2019-04-26T05:16:21.797Z,30.80
2019-04-26T05:18:56.411Z,32.40
2019-04-26T05:21:47.118Z,39.88
2019-04-26T05:24:39.634Z,27.87
2019-04-26T05:27:18.761Z,32.65
2019-04-26T05:29:57.925Z,32.48
2019-04-26T05:32:38.300Z,39.25
2019-04-26T05:35:35.052Z,36.75
2019-04-26T05:38:18.872Z,36.23
2019-04-26T05:41:11.570Z,42.85
2019-04-26T05:43:56.218Z,23.77
2019-04-26T05:46:55.765Z,31.62
2019-04-26T05:49:55.904Z,40.38
2019-04-26T05:52:47.323Z,36.15
2019-04-26T05:55:41.276Z,40.20
2019-04-26T05:58:32.083Z,49.20
2019-04-26T06:01:20.229Z,38.95
2019-04-26T06:04:27.597Z,36.70
2019-04-26T06:07:03.649Z,56.20
2019-04-26T06:10:04.953Z,45.78
2019-04-26T06:13:02.911Z,54.40
2019-04-26T06:15:47.325Z,48.78
2019-04-26T06:18:23.591Z,47.15
2019-04-26T06:21:02.058Z,52.33
2019-04-26T06:23:52.901Z,49.10
2019-04-26T06:26:54.252Z,47.17
2019-04-26T06:32:17.206Z,45.95
2019-04-26T06:37:19.958Z,46.30
2019-04-26T06:39:51.636Z,38.00
2019-04-26T06:42:38.313Z,40.78
2019-04-26T06:45:17.400Z,51.13
2019-04-26T06:48:06.045Z,43.23
2019-04-26T06:50:49.393Z,55.33
2019-04-26T06:53:46.338Z,59.90
2019-04-26T06:56:34.429Z,48.55
2019-04-26T06:59:17.089Z,63.28
2019-04-26T07:01:51.269Z,31.33
2019-04-26T07:04:34.672Z,38.85
2019-04-26T07:07:18.302Z,38.45
2019-04-26T07:10:02.530Z,81.87
2019-04-26T07:12:36.965Z,38.50
2019-04-26T07:15:29.021Z,36.58
2019-04-26T07:18:04.383Z,42.10
2019-04-26T07:20:37.733Z,42.88
2019-04-26T07:23:37.724Z,38.30
2019-04-26T07:26:27.403Z,45.50
2019-04-26T07:29:09.148Z,40.60
2019-04-26T07:32:08.049Z,35.78
2019-04-26T07:34:44.033Z,36.98
2019-04-26T07:37:48.450Z,38.90
2019-04-26T07:41:09.773Z,37.28
2019-04-26T07:43:59.573Z,39.83
2019-04-26T07:46:36.817Z,29.98
2019-04-26T07:49:12.419Z,38.78
2019-04-26T07:52:18.850Z,49.50
2019-04-26T07:54:59.436Z,40.98
2019-04-26T07:57:42.849Z,37.48
2019-04-26T08:00:44.321Z,36.38
2019-04-26T08:03:22.738Z,40.63
2019-04-26T08:06:07.374Z,41.95
2019-04-26T08:08:48.170Z,40.58
2019-04-26T08:11:25.264Z,29.82
2019-04-26T08:14:06.234Z,35.25
2019-04-26T08:16:55.293Z,28.67
2019-04-26T08:19:26.681Z,28.73
2019-04-26T08:22:11.615Z,45.70
2019-04-26T08:24:30.057Z,33.05
2019-04-26T08:27:18.673Z,24.52
2019-04-26T08:29:43.908Z,27.42
2019-04-26T08:32:17.221Z,30.72
2019-04-26T08:34:49.292Z,30.62
2019-04-26T08:37:28.471Z,36.65
2019-04-26T08:39:58.705Z,31.87
2019-04-26T08:42:35.512Z,32.65
2019-04-26T08:45:25.645Z,23.27
2019-04-26T08:48:15.196Z,26.70
2019-04-26T08:50:47.049Z,29.20
2019-04-26T08:53:17.699Z,23.80
2019-04-26T08:55:48.143Z,27.85
2019-04-26T08:58:19.829Z,25.23
2019-04-26T09:00:57.912Z,19.48
2019-04-26T09:03:39.959Z,38.17
2019-04-26T09:06:15.613Z,23.45
2019-04-26T09:08:47.301Z,16.50
2019-04-26T09:11:25.846Z,17.27
2019-04-26T09:13:51.120Z,21.70
2019-04-26T09:16:20.944Z,16.45
2019-04-26T09:18:54.387Z,21.00
2019-04-26T09:21:22.009Z,20.30
2019-04-26T09:24:01.634Z,18.73
2019-04-26T09:26:48.519Z,22.37
2019-04-26T09:29:30.291Z,25.40
2019-04-26T09:31:59.613Z,14.40
2019-04-26T09:34:32.489Z,25.52
2019-04-26T09:37:01.233Z,23.45
2019-04-26T09:39:30.180Z,22.27
2019-04-26T09:42:01.239Z,21.40
2019-04-26T09:44:32.596Z,14.07
2019-04-26T09:47:02.977Z,22.02
2019-04-26T09:49:41.143Z,12.93
2019-04-26T09:52:10.815Z,16.02
2019-04-26T09:54:39.488Z,16.97
2019-04-26T09:57:08.301Z,16.73
2019-04-26T09:59:40.094Z,15.50
2019-04-26T10:02:08.517Z,11.08
2019-04-26T10:04:37.265Z,13.03
2019-04-26T10:07:06.025Z,16.23
2019-04-26T10:09:34.701Z,31.35
2019-04-26T10:12:21.066Z,17.80
2019-04-26T10:14:51.445Z,14.18
2019-04-26T10:17:21.766Z,16.00
2019-04-26T10:19:52.135Z,35.78
2019-04-26T10:22:22.772Z,14.10
2019-04-26T10:24:51.520Z,23.42
2019-04-26T10:27:20.188Z,16.12
2019-04-26T10:29:48.965Z,15.83
2019-04-26T10:32:21.811Z,25.57
2019-04-26T10:34:48.944Z,17.70
2019-04-26T10:37:17.717Z,11.55
2019-04-26T10:39:46.395Z,18.45
2019-04-26T10:42:15.532Z,19.30
2019-04-26T10:44:44.281Z,17.02
2019-04-26T10:47:15.623Z,17.10
2019-04-26T10:49:44.927Z,17.35
2019-04-26T10:52:17.109Z,15.63
2019-04-26T10:55:02.642Z,19.87
2019-04-26T10:57:33.121Z,18.60
2019-04-26T11:00:03.513Z,17.92
2019-04-26T11:02:32.357Z,27.32
2019-04-26T11:05:01.105Z,19.82
2019-04-26T11:07:29.849Z,18.48
2019-04-26T11:09:58.598Z,11.45
2019-04-26T11:12:27.344Z,12.03
2019-04-26T11:14:56.930Z,26.15
2019-04-26T11:17:26.333Z,28.70
2019-04-26T11:19:55.088Z,19.32
2019-04-26T11:22:29.182Z,26.50
2019-04-26T11:24:55.016Z,15.83
2019-04-26T11:27:23.806Z,18.80
2019-04-26T11:29:53.988Z,12.07
2019-04-26T11:32:22.943Z,33.10
2019-04-26T11:34:54.536Z,16.23
2019-04-26T11:37:22.019Z,13.75
2019-04-26T11:39:50.727Z,22.30
2019-04-26T11:42:19.374Z,23.07
2019-04-26T11:44:48.134Z,22.80
2019-04-26T11:47:16.726Z,14.33
2019-04-26T11:49:45.461Z,20.43
2019-04-26T11:52:14.156Z,17.87
2019-04-26T11:54:42.842Z,15.35
2019-04-26T11:57:12.131Z,20.20
2019-04-26T11:59:41.900Z,13.03
2019-04-26T12:02:12.201Z,24.98
2019-04-26T12:04:42.572Z,19.00
2019-04-26T12:07:18.809Z,18.62
2019-04-26T12:09:49.126Z,26.48
2019-04-26T12:12:17.818Z,37.42
2019-04-26T12:14:46.561Z,39.50
2019-04-26T12:17:15.245Z,21.77
2019-04-26T12:19:44.004Z,22.07
2019-04-26T12:22:12.747Z,20.23
2019-04-26T12:24:41.561Z,22.27
2019-04-26T12:27:10.677Z,19.12
2019-04-26T12:29:39.486Z,23.77
2019-04-26T12:32:08.161Z,24.07
2019-04-26T12:34:36.828Z,40.78
2019-04-26T12:37:05.579Z,21.48
2019-04-26T12:39:36.583Z,19.40
2019-04-26T12:42:08.137Z,23.50
2019-04-26T12:44:41.069Z,18.23
2019-04-26T12:47:21.095Z,33.65
2019-04-26T12:49:50.061Z,26.50
2019-04-26T12:52:21.625Z,18.40
2019-04-26T12:54:49.125Z,19.02
2019-04-26T12:57:17.882Z,27.73
2019-04-26T12:59:46.557Z,27.20
2019-04-26T13:02:16.564Z,26.75
2019-04-26T13:04:45.766Z,25.90
2019-04-26T13:07:23.667Z,27.65
2019-04-26T13:10:06.978Z,29.35
2019-04-26T13:12:53.618Z,19.87
2019-04-26T13:15:50.685Z,19.50
2019-04-26T13:18:20.569Z,18.17
2019-04-26T13:20:49.312Z,22.87
2019-04-26T13:23:17.997Z,22.48
2019-04-26T13:25:46.672Z,18.75
2019-04-26T13:28:15.665Z,22.65
2019-04-26T13:30:45.749Z,21.73
2019-04-26T13:33:14.498Z,22.67
2019-04-26T13:35:46.562Z,21.95
2019-04-26T13:38:13.571Z,22.60
2019-04-26T13:40:42.258Z,18.90
2019-04-26T13:43:10.932Z,28.67
2019-04-26T13:45:41.331Z,29.80
2019-04-26T13:48:27.650Z,21.07
2019-04-26T13:51:05.658Z,20.23
2019-04-26T13:53:34.414Z,26.93
2019-04-26T13:56:03.510Z,23.80
2019-04-26T13:58:32.245Z,22.98
2019-04-26T14:01:01.975Z,25.50
2019-04-26T14:03:31.602Z,21.35
2019-04-26T14:06:01.117Z,25.90
2019-04-26T14:08:29.790Z,24.75
2019-04-26T14:10:58.536Z,21.48
2019-04-26T14:13:27.285Z,27.62
2019-04-26T14:15:56.013Z,26.73
2019-04-26T14:18:24.824Z,25.97
2019-04-26T14:20:54.740Z,15.10
2019-04-26T14:23:34.346Z,16.67
2019-04-26T14:26:07.673Z,19.37
2019-04-26T14:28:36.427Z,24.50
2019-04-26T14:31:05.443Z,23.40
2019-04-26T14:33:34.210Z,23.07
2019-04-26T14:36:02.958Z,24.27
2019-04-26T14:38:39.356Z,21.87
2019-04-26T14:41:04.026Z,27.45
2019-04-26T14:43:40.385Z,27.55
2019-04-26T14:46:02.862Z,20.65
2019-04-26T14:48:36.093Z,21.95
2019-04-26T14:51:08.331Z,23.18
2019-04-26T14:53:36.269Z,23.07
2019-04-26T14:56:02.741Z,34.13
2019-04-26T14:58:33.607Z,27.65
2019-04-26T15:01:03.569Z,22.32
2019-04-26T15:03:34.099Z,25.88
2019-04-26T15:06:22.200Z,21.65
2019-04-26T15:08:52.965Z,23.00
2019-04-26T15:11:22.937Z,26.25
2019-04-26T15:13:51.762Z,22.13
2019-04-26T15:16:22.154Z,25.82
2019-04-26T15:18:52.465Z,29.82
2019-04-26T15:21:22.731Z,22.13
2019-04-26T15:23:55.279Z,14.05
2019-04-26T15:26:24.398Z,27.75
2019-04-26T15:28:52.154Z,24.92
2019-04-26T15:31:21.729Z,31.05
2019-04-26T15:33:52.796Z,31.07
2019-04-26T15:36:23.131Z,32.98
2019-04-26T15:38:52.873Z,18.77
2019-04-26T15:41:39.082Z,20.80
2019-04-26T15:44:28.205Z,27.60
2019-04-26T15:47:13.139Z,20.50
2019-04-26T15:49:49.245Z,17.27
2019-04-26T15:52:17.917Z,17.87
2019-04-26T15:54:46.661Z,13.88
2019-04-26T15:57:15.341Z,14.18
2019-04-26T15:59:44.165Z,10.10
2019-04-26T16:02:12.914Z,4.62
2019-04-26T16:04:42.458Z,9.38
2019-04-26T16:07:16.176Z,12.15
2019-04-26T16:09:43.193Z,15.00
2019-04-26T16:12:13.411Z,11.63
2019-04-26T16:14:42.319Z,13.50
2019-04-26T16:17:12.358Z,7.83
2019-04-26T16:19:41.210Z,9.30
2019-04-26T16:22:09.889Z,8.25
2019-04-26T16:24:38.638Z,11.22
2019-04-26T16:27:07.393Z,9.80
2019-04-26T16:29:37.774Z,17.52
2019-04-26T16:32:08.156Z,16.12
2019-04-26T16:34:42.937Z,14.10
2019-04-26T16:37:09.923Z,15.35
2019-04-26T16:39:40.049Z,10.48
2019-04-26T16:42:08.934Z,13.95
2019-04-26T16:44:37.608Z,14.95
2019-04-26T16:47:06.366Z,14.87
2019-04-26T16:49:41.636Z,12.60
2019-04-26T16:52:07.038Z,11.73
2019-04-26T16:54:35.869Z,20.20
2019-04-26T16:57:06.372Z,15.13
2019-04-26T16:59:35.019Z,20.75
2019-04-26T17:02:03.874Z,12.20
2019-04-26T17:04:36.222Z,15.10
2019-04-26T17:07:05.079Z,16.10
2019-04-26T17:09:54.454Z,15.65
2019-04-26T17:12:04.045Z,25.75
2019-04-26T17:14:34.141Z,17.73
2019-04-26T17:17:03.285Z,22.65
2019-04-26T17:19:35.841Z,21.80
2019-04-26T17:22:09.856Z,23.95
2019-04-26T17:24:53.382Z,32.48
2019-04-26T17:27:23.978Z,26.00
2019-04-26T17:29:52.907Z,31.42
2019-04-26T17:32:23.214Z,26.07
2019-04-26T17:34:54.304Z,23.30
2019-04-26T17:37:26.469Z,22.42
2019-04-26T17:39:55.404Z,23.38
2019-04-26T17:42:25.127Z,27.00
2019-04-26T17:44:53.204Z,27.00
2019-04-26T17:47:21.946Z,27.93
2019-04-26T17:49:52.439Z,18.25
2019-04-26T17:52:20.954Z,24.77
2019-04-26T17:54:51.827Z,21.27
2019-04-26T17:57:32.111Z,48.98
2019-04-26T17:59:51.525Z,20.12
2019-04-26T18:02:38.738Z,19.53
2019-04-26T18:04:58.916Z,25.02
2019-04-26T18:07:40.187Z,20.70
2019-04-26T18:09:52.531Z,27.77
2019-04-26T18:12:21.350Z,28.32
2019-04-26T18:14:50.106Z,21.85
2019-04-26T18:17:26.241Z,19.48
2019-04-26T18:19:56.552Z,22.90
2019-04-26T18:22:28.418Z,23.47
2019-04-26T18:24:57.131Z,20.75
2019-04-26T18:27:25.823Z,20.90
2019-04-26T18:29:54.499Z,18.20
2019-04-26T18:32:24.460Z,30.08
2019-04-26T18:34:53.676Z,17.63
2019-04-26T18:37:23.116Z,26.07
2019-04-26T18:39:53.365Z,30.02
2019-04-26T18:42:22.111Z,17.52
2019-04-26T18:44:50.793Z,27.22
2019-04-26T18:47:25.651Z,29.63
2019-04-26T18:49:57.778Z,50.23
2019-04-26T18:52:23.403Z,34.00
2019-04-26T18:54:58.294Z,30.35
2019-04-26T18:57:27.144Z,25.85
2019-04-26T18:59:55.833Z,34.50
2019-04-26T19:02:26.183Z,30.05
2019-04-26T19:04:54.934Z,32.13
2019-04-26T19:07:31.835Z,30.57
2019-04-26T19:10:00.729Z,29.02
2019-04-26T19:12:26.967Z,24.80
2019-04-26T19:15:14.432Z,31.50
2019-04-26T19:17:47.347Z,20.80
2019-04-26T19:20:23.793Z,31.37
2019-04-26T19:22:57.279Z,20.40
2019-04-26T19:25:29.844Z,31.10
2019-04-26T19:27:58.904Z,22.45
2019-04-26T19:30:27.110Z,21.90
2019-04-26T19:32:55.775Z,17.30
2019-04-26T19:35:24.446Z,22.40
2019-04-26T19:37:53.183Z,29.70
2019-04-26T19:40:27.314Z,28.32
2019-04-26T19:42:57.495Z,22.90
2019-04-26T19:45:39.582Z,23.22
2019-04-26T19:48:12.447Z,29.77
2019-04-26T19:50:48.668Z,26.57
2019-04-26T19:53:22.987Z,37.05
2019-04-26T19:55:58.172Z,27.25
2019-04-26T19:58:32.133Z,24.23
2019-04-26T20:01:01.943Z,26.73
2019-04-26T20:03:32.079Z,34.25
2019-04-26T20:06:01.654Z,26.50
2019-04-26T20:08:30.345Z,27.07
2019-04-26T20:10:59.019Z,22.73
2019-04-26T20:13:27.743Z,19.37
2019-04-26T20:15:57.427Z,17.70
2019-04-26T20:18:26.773Z,26.97
2019-04-26T20:20:55.458Z,23.98
2019-04-26T20:23:24.218Z,22.82
2019-04-26T20:25:53.112Z,25.48
2019-04-26T20:28:22.773Z,25.45
2019-04-26T20:30:57.975Z,25.00
2019-04-26T20:33:30.804Z,18.70
2019-04-26T20:35:57.522Z,32.88
2019-04-26T20:38:27.453Z,28.23
2019-04-26T20:40:56.068Z,27.98
2019-04-26T20:43:26.640Z,30.62
2019-04-26T20:46:11.054Z,29.48
2019-04-26T20:48:29.685Z,37.40
2019-04-26T20:50:55.934Z,32.48
2019-04-26T20:53:24.681Z,26.55
2019-04-26T20:55:53.430Z,29.35
2019-04-26T20:58:22.122Z,20.43
2019-04-26T21:00:54.643Z,28.07
2019-04-26T21:03:26.043Z,26.37
2019-04-26T21:05:58.792Z,27.17
2019-04-26T21:08:25.767Z,29.45
2019-04-26T21:10:56.075Z,26.12
2019-04-26T21:13:23.745Z,23.80
2019-04-26T21:15:58.302Z,33.75
2019-04-26T21:18:23.432Z,24.75
2019-04-26T21:20:52.257Z,25.23
2019-04-26T21:23:22.253Z,26.93
2019-04-26T21:25:55.458Z,27.30
2019-04-26T21:28:38.059Z,28.38
2019-04-26T21:31:22.712Z,24.30
2019-04-26T21:34:07.967Z,24.72
2019-04-26T21:36:53.360Z,23.65
2019-04-26T21:39:23.593Z,23.05
2019-04-26T21:41:53.909Z,25.00
2019-04-26T21:44:22.588Z,23.27
2019-04-26T21:46:56.193Z,30.50
2019-04-26T21:49:22.200Z,27.17
2019-04-26T21:51:54.105Z,30.68
2019-04-26T21:54:24.950Z,21.52
2019-04-26T21:56:53.728Z,25.92
2019-04-26T21:59:24.276Z,22.52
2019-04-26T22:01:58.835Z,27.93
2019-04-26T22:04:24.470Z,26.80
2019-04-26T22:06:53.429Z,23.57
2019-04-26T22:09:37.244Z,24.43
2019-04-26T22:12:07.558Z,25.43
2019-04-26T22:14:37.950Z,31.70
2019-04-26T22:17:14.342Z,25.40
2019-04-26T22:20:04.542Z,33.95
2019-04-26T22:22:44.526Z,28.25
2019-04-26T22:25:14.244Z,22.22
2019-04-26T22:27:43.711Z,17.62
2019-04-26T22:30:14.200Z,24.57
2019-04-26T22:32:42.883Z,20.27
2019-04-26T22:35:13.473Z,21.40
2019-04-26T22:37:45.560Z,24.35
2019-04-26T22:40:17.026Z,26.95
2019-04-26T22:42:44.477Z,21.97
2019-04-26T22:45:14.984Z,19.10
2019-04-26T22:47:45.357Z,23.32
2019-04-26T22:50:21.010Z,28.87
2019-04-26T22:52:51.119Z,19.42
2019-04-26T22:55:17.668Z,21.05
2019-04-26T22:57:45.306Z,26.45
2019-04-26T23:00:15.559Z,35.08
2019-04-26T23:02:45.734Z,29.87
2019-04-26T23:05:14.618Z,32.25
2019-04-26T23:07:43.299Z,27.10
2019-04-26T23:10:13.019Z,28.92
2019-04-26T23:13:07.421Z,23.92
2019-04-26T23:15:43.307Z,23.50
2019-04-26T23:18:16.381Z,25.60
2019-04-26T23:20:58.263Z,22.00
2019-04-26T23:23:27.001Z,27.35
2019-04-26T23:25:55.683Z,27.00
2019-04-26T23:28:27.640Z,21.37
2019-04-26T23:30:54.834Z,26.10
2019-04-26T23:33:23.922Z,23.05
2019-04-26T23:35:53.008Z,30.62
2019-04-26T23:38:23.419Z,32.00
2019-04-26T23:40:52.284Z,24.72
2019-04-26T23:43:24.015Z,29.07
2019-04-26T23:45:52.761Z,23.77
2019-04-26T23:48:22.314Z,19.75
2019-04-26T23:50:50.988Z,23.60
2019-04-26T23:53:20.517Z,23.27
2019-04-26T23:55:50.083Z,28.23
2019-04-26T23:58:18.763Z,30.95
